Airfield :
LOGIN :

Register | Disclaimer

   EN    FR    IT 

 










Legend :    VFR   Marginal VFR   IFR   Intensive IFR   Very Intensive IFR
Visi :
Ceiling :
>= 8 km
>= 3000ft
5 to 8 km
1000 to 3000 ft
1500m to 5 km
500 to 1000 ft
800 to 1500m
200 to 500 ft
< 800m
< 200 ft
Symbols :   Thunderstorms  Fog  Heavy snow  Heavy precipitations  Wind > 20 kt
SIGMETs :     Misc.  Thunderstorms  Icing  Turbulence  Mountain Waves  Volcanic Ashes






- Airport Elevation : 538 ft
- IATA code : TNF


LFPN - Toussus Le Noble

CURRENT METAR :
  • 080200Z AUTO 23017KT 9999 SCT013 OVC019 10/07 Q1013

EXPIRED METARs :
  • 080130Z AUTO 22014KT 9999 BKN013 OVC021 10/08 Q1014
  • 080100Z AUTO 22015KT 9999 OVC010 10/08 Q1014
  • 080030Z AUTO 21012KT 9999 BKN010 BKN016 OVC026 10/08 Q1014
  • 080000Z AUTO 21012KT 9999 FEW010 OVC028 10/08 Q1015
  • 072330Z AUTO 22011KT 9999 BKN011 OVC026 10/08 Q1016
  • 072300Z AUTO 22012KT 9999 BKN007 BKN011 OVC025 10/08 Q1016

TAF TAF LFPN
Valid from the 07 at 18:00 until the 08 at 03:00 UTC


071700Z 0718/0803 22008KT 9999 BKN020
PROB30
TEMPO 0720/0803 2500 -RADZ BKN003
ATIS : +33 1 39 56 54 70



MET'MAP, your aeronautical weather chart ! - Copyright ORBIFLY December 2007 - Disclaimer

ORBIFLY MET'MAP TEAM :

Programming & Development : Alexandra Zaïnal
Concept & original design : Baudouin d'Aumeries
Assistance for programming : Marc-Olivier Méhu
Technical & hardware support : Manuel Goepfert

Contact : metmap@orbifly.com




SOURCES & CREDITS :

   NOAA